Time;durP1;ratioP1;P1;durP2;ratioP2;P2;SDS_P1;SDS_P2;PMS_P1;PMS_P2;Temp;Humidity;BMP_temperature;BMP_pressure;BME280_temperature;BME280_humidity;BME280_pressure;Samples;Min_cycle;Max_cycle;Signal;HPM_P1;HPM_P2
2023/12/10 00:01:02;;;;;;;173.50;96.65;;;;;;;;;;5011719;28;20591;-85
2023/12/10 00:03:28;;;;;;;109.35;60.47;;;;;;;;;;5029503;28;20025;-84
2023/12/10 00:05:53;;;;;;;132.77;76.47;;;;;;;;;;5012090;28;20026;-85
2023/12/10 00:08:19;;;;;;;348.98;176.07;;;;;;;;;;5011547;28;20156;-85
2023/12/10 00:10:44;;;;;;;411.30;197.35;;;;;;;;;;5029727;28;20026;-85
2023/12/10 00:13:09;;;;;;;420.05;205.73;;;;;;;;;;5026368;28;20042;-85
2023/12/10 00:15:35;;;;;;;339.83;165.60;;;;;;;;;;5028320;28;20315;-84
2023/12/10 00:18:01;;;;;;;179.52;96.10;;;;;;;;;;5030027;28;20036;-84
2023/12/10 00:20:26;;;;;;;107.78;60.60;;;;;;;;;;5029410;28;20463;-84
2023/12/10 00:22:51;;;;;;;101.82;56.28;;;;;;;;;;5029548;28;20628;-85
2023/12/10 00:25:17;;;;;;;86.18;48.58;;;;;;;;;;5029439;28;20100;-84
2023/12/10 00:27:42;;;;;;;74.60;44.78;;;;;;;;;;5028959;28;20057;-84
2023/12/10 00:30:08;;;;;;;67.53;38.22;;;;;;;;;;5011537;28;20071;-84
2023/12/10 00:32:33;;;;;;;60.47;35.65;;;;;;;;;;5028557;28;20039;-84
2023/12/10 00:34:59;;;;;;;112.70;59.17;;;;;;;;;;4994943;28;20060;-84
2023/12/10 00:37:24;;;;;;;82.25;45.75;;;;;;;;;;5010987;28;20101;-85
2023/12/10 00:39:49;;;;;;;94.70;50.53;;;;;;;;;;5028692;28;20316;-84
2023/12/10 00:42:15;;;;;;;111.43;64.60;;;;;;;;;;5029125;28;20021;-85
2023/12/10 00:44:40;;;;;;;117.38;68.03;;;;;;;;;;5028925;28;20075;-85
2023/12/10 00:47:05;;;;;;;131.02;70.38;;;;;;;;;;5011043;28;20029;-84
2023/12/10 00:49:31;;;;;;;143.65;77.60;;;;;;;;;;5028640;28;20029;-85
2023/12/10 00:51:56;;;;;;;130.70;68.72;;;;;;;;;;5011035;28;20017;-85
2023/12/10 00:54:21;;;;;;;157.85;83.15;;;;;;;;;;5028654;28;20032;-85
2023/12/10 00:56:46;;;;;;;196.98;103.03;;;;;;;;;;5010825;28;20030;-84
2023/12/10 00:59:12;;;;;;;178.88;89.82;;;;;;;;;;5028084;28;20037;-84
2023/12/10 01:01:37;;;;;;;182.60;95.90;;;;;;;;;;5010749;28;20116;-84
2023/12/10 01:04:03;;;;;;;184.88;97.55;;;;;;;;;;5028158;28;20056;-84
2023/12/10 01:06:28;;;;;;;207.50;98.97;;;;;;;;;;5028582;28;20025;-85
2023/12/10 01:08:53;;;;;;;181.00;93.97;;;;;;;;;;5026441;28;20052;-84
2023/12/10 01:11:19;;;;;;;210.43;114.18;;;;;;;;;;5028430;28;20029;-84
2023/12/10 01:13:44;;;;;;;179.75;100.45;;;;;;;;;;5009863;28;20036;-84
2023/12/10 01:16:10;;;;;;;160.32;92.65;;;;;;;;;;5028507;28;20034;-84
2023/12/10 01:18:38;;;;;;;192.93;105.63;;;;;;;;;;5026484;28;20017;-83
2023/12/10 01:21:04;;;;;;;170.30;92.63;;;;;;;;;;5004616;28;20091;-83
2023/12/10 01:23:29;;;;;;;200.80;113.22;;;;;;;;;;5009022;28;20021;-85
2023/12/10 01:25:55;;;;;;;183.32;102.05;;;;;;;;;;5025204;28;20032;-83
2023/12/10 01:28:20;;;;;;;191.68;101.47;;;;;;;;;;5026697;28;20053;-83
2023/12/10 01:30:46;;;;;;;270.02;117.60;;;;;;;;;;5008836;28;20242;-84
2023/12/10 01:33:11;;;;;;;157.13;89.88;;;;;;;;;;5010335;28;20080;-84
2023/12/10 01:35:37;;;;;;;157.50;91.13;;;;;;;;;;5024801;28;20457;-84
2023/12/10 01:38:03;;;;;;;141.57;76.07;;;;;;;;;;5027815;28;20025;-84
2023/12/10 01:40:28;;;;;;;124.22;67.10;;;;;;;;;;5009585;28;20026;-85
2023/12/10 01:42:53;;;;;;;118.05;64.72;;;;;;;;;;5022340;28;20470;-86
2023/12/10 01:45:19;;;;;;;145.93;84.03;;;;;;;;;;5010534;28;20595;-85
2023/12/10 01:47:45;;;;;;;141.75;76.55;;;;;;;;;;5027333;28;20033;-85
2023/12/10 01:50:15;;;;;;;139.48;75.07;;;;;;;;;;5017903;28;20117;-86
2023/12/10 01:52:41;;;;;;;143.82;74.07;;;;;;;;;;5025140;28;20061;-84
2023/12/10 01:55:10;;;;;;;126.68;73.32;;;;;;;;;;5015084;28;20076;-84
2023/12/10 01:57:36;;;;;;;124.18;69.15;;;;;;;;;;5026638;28;20029;-85
2023/12/10 02:00:06;;;;;;;121.40;64.60;;;;;;;;;;5027691;28;20045;-84
2023/12/10 02:02:35;;;;;;;136.00;74.72;;;;;;;;;;5026756;28;20021;-84
2023/12/10 02:05:04;;;;;;;140.75;79.43;;;;;;;;;;5024026;28;20022;-85
2023/12/10 02:07:29;;;;;;;132.05;72.00;;;;;;;;;;5027093;28;20339;-85
2023/12/10 02:09:56;;;;;;;136.25;72.38;;;;;;;;;;5027335;28;20076;-85
2023/12/10 02:12:21;;;;;;;122.10;66.70;;;;;;;;;;5009626;28;20284;-85
2023/12/10 02:14:47;;;;;;;439.48;151.95;;;;;;;;;;5010113;28;20027;-85
2023/12/10 02:17:12;;;;;;;293.63;131.70;;;;;;;;;;5027308;28;20033;-85
2023/12/10 02:19:37;;;;;;;166.48;86.57;;;;;;;;;;5005805;28;20510;-84
2023/12/10 02:22:04;;;;;;;183.77;93.72;;;;;;;;;;5024594;28;20091;-85
2023/12/10 02:24:36;;;;;;;161.27;83.75;;;;;;;;;;5027560;28;20121;-85
2023/12/10 02:27:01;;;;;;;145.10;77.70;;;;;;;;;;5024236;28;20037;-84
2023/12/10 02:29:26;;;;;;;147.52;78.70;;;;;;;;;;5027143;28;20372;-85
2023/12/10 02:31:52;;;;;;;126.05;67.82;;;;;;;;;;5026074;28;20124;-85
2023/12/10 02:34:17;;;;;;;112.97;57.35;;;;;;;;;;5027602;28;20026;-85
2023/12/10 02:36:42;;;;;;;119.32;65.18;;;;;;;;;;5027402;28;20090;-85
2023/12/10 02:39:10;;;;;;;120.13;64.13;;;;;;;;;;5008983;28;20599;-84
2023/12/10 02:41:36;;;;;;;101.22;54.58;;;;;;;;;;5025918;28;20548;-85
2023/12/10 02:44:01;;;;;;;99.47;53.45;;;;;;;;;;5027338;28;20025;-85
2023/12/10 02:46:26;;;;;;;107.43;58.30;;;;;;;;;;5012231;28;20398;-85
2023/12/10 02:48:52;;;;;;;102.93;56.58;;;;;;;;;;5025940;28;20039;-85
2023/12/10 02:51:17;;;;;;;98.10;55.85;;;;;;;;;;5025456;28;20051;-85
2023/12/10 02:53:42;;;;;;;97.93;53.20;;;;;;;;;;5008891;28;20040;-85
2023/12/10 02:56:08;;;;;;;106.60;57.60;;;;;;;;;;5025922;28;20115;-85
2023/12/10 02:58:33;;;;;;;115.95;59.88;;;;;;;;;;5012496;28;20597;-85
2023/12/10 03:00:59;;;;;;;127.80;67.13;;;;;;;;;;5031213;28;20022;-85
2023/12/10 03:03:24;;;;;;;122.00;64.10;;;;;;;;;;5027591;28;20022;-85
2023/12/10 03:05:49;;;;;;;117.07;61.75;;;;;;;;;;5012083;28;20048;-85
2023/12/10 03:08:15;;;;;;;141.88;73.25;;;;;;;;;;5009903;28;20041;-84
2023/12/10 03:10:40;;;;;;;146.45;74.63;;;;;;;;;;5009824;28;20030;-85
2023/12/10 03:13:05;;;;;;;127.28;68.70;;;;;;;;;;5007712;28;20033;-85
2023/12/10 03:15:31;;;;;;;133.65;67.15;;;;;;;;;;5030725;28;20600;-85
2023/12/10 03:17:56;;;;;;;199.43;92.47;;;;;;;;;;5029867;28;20060;-85
2023/12/10 03:20:21;;;;;;;143.15;73.57;;;;;;;;;;5031036;28;20022;-85
2023/12/10 03:22:46;;;;;;;131.13;69.18;;;;;;;;;;5029933;28;20036;-85
2023/12/10 03:25:12;;;;;;;118.53;63.17;;;;;;;;;;5029084;28;20091;-85
2023/12/10 03:27:37;;;;;;;111.53;57.47;;;;;;;;;;5030333;28;20057;-85
2023/12/10 03:30:03;;;;;;;127.53;66.05;;;;;;;;;;5013044;28;20446;-85
2023/12/10 03:32:28;;;;;;;128.90;65.63;;;;;;;;;;5030496;28;20084;-85
2023/12/10 03:34:53;;;;;;;145.52;74.40;;;;;;;;;;5010552;28;20072;-85
2023/12/10 03:37:19;;;;;;;121.57;62.50;;;;;;;;;;5030082;28;20025;-85
2023/12/10 03:39:44;;;;;;;107.90;56.20;;;;;;;;;;5026340;28;20037;-85
2023/12/10 03:42:09;;;;;;;108.15;52.72;;;;;;;;;;5012651;28;20087;-85
2023/12/10 03:44:34;;;;;;;100.93;50.22;;;;;;;;;;5029445;28;20056;-84
2023/12/10 03:47:03;;;;;;;105.78;52.75;;;;;;;;;;5030394;28;20009;-85
2023/12/10 03:49:31;;;;;;;109.22;54.15;;;;;;;;;;5029858;28;20067;-84
2023/12/10 03:51:59;;;;;;;153.77;61.78;;;;;;;;;;5011225;28;20022;-85
2023/12/10 03:54:24;;;;;;;271.02;63.47;;;;;;;;;;5007220;28;20120;-85
2023/12/10 03:56:50;;;;;;;434.63;65.72;;;;;;;;;;5029188;28;20120;-85
2023/12/10 03:59:15;;;;;;;229.77;65.80;;;;;;;;;;5011280;28;20026;-84
2023/12/10 04:01:44;;;;;;;284.38;85.80;;;;;;;;;;5012319;28;20032;-84
2023/12/10 04:04:11;;;;;;;181.27;63.55;;;;;;;;;;5019647;28;20083;-85
2023/12/10 04:06:44;;;;;;;218.25;67.63;;;;;;;;;;5030013;28;20483;-85
2023/12/10 04:09:09;;;;;;;193.55;59.95;;;;;;;;;;5020749;28;20021;-85
2023/12/10 04:11:35;;;;;;;204.93;52.08;;;;;;;;;;5012047;28;20018;-85
2023/12/10 04:14:00;;;;;;;232.07;54.47;;;;;;;;;;5017440;28;20122;-85
2023/12/10 04:16:26;;;;;;;246.88;70.65;;;;;;;;;;5029113;28;20509;-84
2023/12/10 04:18:51;;;;;;;259.13;98.45;;;;;;;;;;5023614;28;20020;-85
2023/12/10 04:21:21;;;;;;;215.43;87.13;;;;;;;;;;5029241;28;20021;-85
2023/12/10 04:23:46;;;;;;;200.93;89.03;;;;;;;;;;5028966;28;20022;-85
2023/12/10 04:26:11;;;;;;;204.48;84.55;;;;;;;;;;5011381;28;20017;-84
2023/12/10 04:28:40;;;;;;;160.38;73.50;;;;;;;;;;5027060;28;20050;-84
2023/12/10 04:31:06;;;;;;;122.20;59.45;;;;;;;;;;5010788;28;20037;-84
2023/12/10 04:33:31;;;;;;;139.32;63.47;;;;;;;;;;5029854;28;20029;-84
2023/12/10 04:35:56;;;;;;;156.57;74.32;;;;;;;;;;5029259;28;20021;-85
2023/12/10 04:38:21;;;;;;;267.67;85.78;;;;;;;;;;5010564;28;20425;-84
2023/12/10 04:40:47;;;;;;;410.20;97.93;;;;;;;;;;5028845;28;20116;-84
2023/12/10 04:43:12;;;;;;;438.63;94.95;;;;;;;;;;5027312;28;20025;-85
2023/12/10 04:45:38;;;;;;;401.92;91.88;;;;;;;;;;5028325;28;20425;-84
2023/12/10 04:48:04;;;;;;;304.10;91.88;;;;;;;;;;5009024;28;20021;-84
2023/12/10 04:50:30;;;;;;;236.65;93.40;;;;;;;;;;5026811;28;20025;-84
2023/12/10 04:52:55;;;;;;;234.32;102.22;;;;;;;;;;5010993;28;20025;-85
2023/12/10 04:55:21;;;;;;;385.92;146.90;;;;;;;;;;5028133;28;20017;-85
2023/12/10 04:57:46;;;;;;;273.50;111.45;;;;;;;;;;5029440;28;20071;-84
2023/12/10 05:00:12;;;;;;;212.95;91.22;;;;;;;;;;5027818;28;20471;-85
2023/12/10 05:02:37;;;;;;;219.45;86.70;;;;;;;;;;5028386;28;20018;-84
2023/12/10 05:05:03;;;;;;;288.33;78.07;;;;;;;;;;5025710;28;20056;-84
2023/12/10 05:07:28;;;;;;;256.63;70.97;;;;;;;;;;5027999;28;20073;-85
2023/12/10 05:09:54;;;;;;;550.40;167.32;;;;;;;;;;5027947;28;20095;-85
2023/12/10 05:12:19;;;;;;;336.73;113.13;;;;;;;;;;5009392;28;20021;-84
2023/12/10 05:14:45;;;;;;;415.27;152.30;;;;;;;;;;5010551;28;20583;-84
2023/12/10 05:17:10;;;;;;;406.80;131.90;;;;;;;;;;5028517;28;20027;-85
2023/12/10 05:19:35;;;;;;;460.90;172.50;;;;;;;;;;5009083;28;20065;-84
2023/12/10 05:22:01;;;;;;;535.03;152.50;;;;;;;;;;5010455;28;20067;-84
2023/12/10 05:24:27;;;;;;;591.22;121.63;;;;;;;;;;5028579;28;20028;-84
2023/12/10 05:26:52;;;;;;;908.47;149.15;;;;;;;;;;5023987;28;20021;-84
2023/12/10 05:29:18;;;;;;;623.83;103.05;;;;;;;;;;5028702;28;20057;-84
2023/12/10 05:31:43;;;;;;;495.05;85.70;;;;;;;;;;5009606;28;20049;-85
2023/12/10 05:34:08;;;;;;;489.40;81.03;;;;;;;;;;5028017;28;20116;-84
2023/12/10 05:36:34;;;;;;;426.30;77.05;;;;;;;;;;5016164;28;20064;-84
2023/12/10 05:38:59;;;;;;;564.38;106.78;;;;;;;;;;5027469;28;20021;-85
2023/12/10 05:41:24;;;;;;;563.20;98.35;;;;;;;;;;5014133;28;20141;-84
2023/12/10 05:43:50;;;;;;;964.28;193.23;;;;;;;;;;5026203;28;20498;-85
2023/12/10 05:46:15;;;;;;;1015.58;195.25;;;;;;;;;;5027946;28;20078;-84
2023/12/10 05:48:40;;;;;;;566.03;157.05;;;;;;;;;;5026540;28;20049;-84
2023/12/10 05:51:06;;;;;;;449.80;119.00;;;;;;;;;;5027375;28;20375;-84
2023/12/10 05:53:31;;;;;;;318.17;86.65;;;;;;;;;;5027035;28;20017;-85
2023/12/10 05:55:56;;;;;;;223.65;57.35;;;;;;;;;;5009808;28;20033;-84
2023/12/10 05:58:21;;;;;;;319.48;63.95;;;;;;;;;;5026710;28;20022;-84
2023/12/10 06:00:47;;;;;;;281.60;68.82;;;;;;;;;;5027570;28;20379;-84
2023/12/10 06:03:13;;;;;;;282.02;64.82;;;;;;;;;;5027785;28;20026;-84
2023/12/10 06:05:39;;;;;;;339.17;58.50;;;;;;;;;;5024830;28;20689;-84
2023/12/10 06:08:04;;;;;;;281.77;52.75;;;;;;;;;;5023502;28;20113;-84
2023/12/10 06:10:29;;;;;;;364.58;58.22;;;;;;;;;;5009442;28;20024;-84
2023/12/10 06:12:55;;;;;;;241.18;44.50;;;;;;;;;;5027761;28;20033;-84
2023/12/10 06:15:20;;;;;;;359.88;58.40;;;;;;;;;;5009837;28;20058;-85
2023/12/10 06:17:46;;;;;;;412.20;66.55;;;;;;;;;;5026920;28;20465;-84
2023/12/10 06:20:11;;;;;;;251.48;51.45;;;;;;;;;;5027434;28;20014;-85
2023/12/10 06:22:36;;;;;;;199.63;48.38;;;;;;;;;;5027151;28;20017;-85
2023/12/10 06:25:02;;;;;;;286.98;51.78;;;;;;;;;;5009445;28;20104;-85
2023/12/10 06:27:28;;;;;;;168.15;42.67;;;;;;;;;;5009808;28;20094;-85
2023/12/10 06:29:54;;;;;;;117.50;37.28;;;;;;;;;;5027069;28;20394;-85
2023/12/10 06:32:19;;;;;;;106.18;32.67;;;;;;;;;;5012236;28;20083;-84
2023/12/10 06:34:44;;;;;;;188.27;62.83;;;;;;;;;;5031503;28;20021;-84
2023/12/10 06:37:10;;;;;;;314.77;107.00;;;;;;;;;;5030882;28;20025;-84
2023/12/10 06:39:35;;;;;;;129.13;39.88;;;;;;;;;;5025452;28;20024;-84
2023/12/10 06:42:01;;;;;;;279.60;92.97;;;;;;;;;;5025819;28;20021;-84
2023/12/10 06:44:27;;;;;;;314.98;88.45;;;;;;;;;;5029579;28;20312;-85
2023/12/10 06:46:52;;;;;;;193.25;66.07;;;;;;;;;;5013156;28;20017;-85
2023/12/10 06:49:17;;;;;;;111.32;34.30;;;;;;;;;;5030930;28;20027;-85
2023/12/10 06:51:43;;;;;;;128.98;31.05;;;;;;;;;;5031217;28;20087;-85
2023/12/10 06:54:09;;;;;;;136.30;30.98;;;;;;;;;;5019395;28;20021;-84
2023/12/10 06:56:39;;;;;;;106.15;25.55;;;;;;;;;;5030906;28;20017;-85
2023/12/10 06:59:04;;;;;;;231.10;65.50;;;;;;;;;;4994149;28;20407;-85
2023/12/10 07:01:30;;;;;;;185.45;40.72;;;;;;;;;;5010369;28;20089;-85
2023/12/10 07:03:55;;;;;;;187.43;46.22;;;;;;;;;;5016614;28;20013;-85
2023/12/10 07:06:21;;;;;;;115.18;33.20;;;;;;;;;;5030515;28;20383;-85
2023/12/10 07:08:46;;;;;;;154.63;34.38;;;;;;;;;;5009212;28;20080;-85
2023/12/10 07:11:12;;;;;;;102.55;29.85;;;;;;;;;;5026321;28;20045;-85
2023/12/10 07:13:37;;;;;;;122.22;32.17;;;;;;;;;;5012693;28;20100;-85
2023/12/10 07:16:03;;;;;;;66.35;24.98;;;;;;;;;;5030542;28;20079;-84
2023/12/10 07:18:28;;;;;;;103.50;31.27;;;;;;;;;;5012480;28;20051;-85
2023/12/10 07:20:53;;;;;;;120.32;33.70;;;;;;;;;;5028863;28;20025;-85
2023/12/10 07:23:19;;;;;;;79.18;24.70;;;;;;;;;;5029675;28;20028;-86
2023/12/10 07:25:44;;;;;;;144.32;30.95;;;;;;;;;;5030999;28;20375;-85
2023/12/10 07:28:10;;;;;;;112.47;31.52;;;;;;;;;;5012853;28;20072;-85
2023/12/10 07:30:36;;;;;;;140.68;37.85;;;;;;;;;;4992881;28;20026;-85
2023/12/10 07:33:01;;;;;;;118.78;33.65;;;;;;;;;;5024376;28;20017;-85
2023/12/10 07:35:26;;;;;;;159.35;33.58;;;;;;;;;;5021667;28;20033;-85
2023/12/10 07:37:52;;;;;;;111.78;24.52;;;;;;;;;;5030138;28;20395;-85
2023/12/10 07:40:17;;;;;;;133.23;32.03;;;;;;;;;;5029934;28;20017;-85
2023/12/10 07:42:44;;;;;;;129.68;35.60;;;;;;;;;;5029638;28;20076;-85
2023/12/10 07:45:09;;;;;;;87.03;28.10;;;;;;;;;;5019184;28;20551;-85
2023/12/10 07:47:34;;;;;;;62.63;21.02;;;;;;;;;;5019681;28;20100;-85
2023/12/10 07:50:00;;;;;;;82.22;23.23;;;;;;;;;;5029619;28;20044;-85
2023/12/10 07:52:25;;;;;;;96.85;24.38;;;;;;;;;;5011815;28;20029;-85
2023/12/10 07:54:50;;;;;;;83.40;24.58;;;;;;;;;;5010982;28;20025;-84
2023/12/10 07:57:16;;;;;;;71.75;20.58;;;;;;;;;;5012091;28;20057;-85
2023/12/10 07:59:41;;;;;;;127.00;22.92;;;;;;;;;;5008544;28;20100;-83
2023/12/10 08:02:06;;;;;;;143.65;22.02;;;;;;;;;;5030104;28;20017;-84
2023/12/10 08:04:32;;;;;;;92.93;22.15;;;;;;;;;;5022413;28;20529;-85
2023/12/10 08:06:57;;;;;;;58.03;20.30;;;;;;;;;;5009469;28;20029;-86
2023/12/10 08:09:22;;;;;;;67.43;23.17;;;;;;;;;;5029331;28;20105;-85
2023/12/10 08:11:48;;;;;;;54.47;15.73;;;;;;;;;;5029256;28;20509;-86
2023/12/10 08:14:13;;;;;;;34.15;14.00;;;;;;;;;;5027558;28;20021;-84
2023/12/10 08:16:39;;;;;;;24.83;12.98;;;;;;;;;;5013250;28;20486;-84
2023/12/10 08:19:04;;;;;;;57.00;20.90;;;;;;;;;;5017102;28;20018;-84
2023/12/10 08:21:29;;;;;;;50.10;19.60;;;;;;;;;;5016850;28;20025;-83
2023/12/10 08:23:56;;;;;;;57.05;20.50;;;;;;;;;;5042191;28;20013;-83
2023/12/10 08:26:22;;;;;;;51.30;19.67;;;;;;;;;;5029607;28;20021;-83
2023/12/10 08:28:47;;;;;;;142.93;74.05;;;;;;;;;;5028628;28;20328;-83
2023/12/10 08:31:12;;;;;;;156.05;72.38;;;;;;;;;;5008158;28;20103;-83
2023/12/10 08:33:38;;;;;;;60.90;31.98;;;;;;;;;;5009010;28;20047;-83
2023/12/10 08:36:03;;;;;;;50.08;19.77;;;;;;;;;;5008517;28;20029;-84
2023/12/10 08:38:28;;;;;;;43.75;15.32;;;;;;;;;;5022566;28;20029;-84
2023/12/10 08:40:55;;;;;;;43.55;16.42;;;;;;;;;;5022677;28;20048;-83
2023/12/10 08:43:21;;;;;;;29.00;13.57;;;;;;;;;;5026521;28;20025;-84
2023/12/10 08:45:46;;;;;;;32.28;17.23;;;;;;;;;;5010258;28;20036;-83
2023/12/10 08:48:12;;;;;;;35.83;17.63;;;;;;;;;;5025723;28;20057;-83
2023/12/10 08:50:38;;;;;;;31.58;16.48;;;;;;;;;;5025962;28;20025;-84
2023/12/10 08:53:05;;;;;;;28.15;14.43;;;;;;;;;;5007847;28;20309;-84
2023/12/10 08:55:30;;;;;;;63.33;30.70;;;;;;;;;;5024738;28;20020;-83
2023/12/10 08:57:55;;;;;;;38.42;20.85;;;;;;;;;;5008333;28;20010;-85
2023/12/10 09:00:20;;;;;;;24.35;14.38;;;;;;;;;;5008135;28;20368;-83
2023/12/10 09:02:46;;;;;;;38.65;20.48;;;;;;;;;;5009235;28;20032;-83
2023/12/10 09:05:11;;;;;;;34.55;17.40;;;;;;;;;;5003462;28;20100;-83
2023/12/10 09:07:37;;;;;;;31.17;16.88;;;;;;;;;;5020435;28;20365;-83
2023/12/10 09:10:02;;;;;;;30.52;16.17;;;;;;;;;;5025682;28;20022;-83
2023/12/10 09:12:32;;;;;;;33.40;17.90;;;;;;;;;;5026059;28;20033;-84
2023/12/10 09:14:58;;;;;;;35.35;19.27;;;;;;;;;;5025680;28;20108;-85
2023/12/10 09:17:23;;;;;;;40.90;22.67;;;;;;;;;;5025623;28;20108;-84
2023/12/10 09:19:48;;;;;;;28.95;17.58;;;;;;;;;;5025579;28;20072;-84
2023/12/10 09:22:14;;;;;;;26.00;15.25;;;;;;;;;;5017728;28;20021;-85
2023/12/10 09:24:40;;;;;;;50.22;27.05;;;;;;;;;;5025839;28;20075;-83
2023/12/10 09:27:05;;;;;;;85.13;47.85;;;;;;;;;;5026946;28;20030;-83
2023/12/10 09:29:38;;;;;;;60.33;31.60;;;;;;;;;;4991848;28;20093;-86
2023/12/10 09:32:05;;;;;;;41.50;22.85;;;;;;;;;;5025916;28;20033;-84
2023/12/10 09:34:30;;;;;;;45.90;25.50;;;;;;;;;;5026291;28;20025;-86
2023/12/10 09:36:55;;;;;;;50.75;28.60;;;;;;;;;;5018352;28;20083;-84
2023/12/10 09:39:21;;;;;;;73.28;39.40;;;;;;;;;;5007839;28;20025;-84
2023/12/10 09:41:46;;;;;;;79.55;41.95;;;;;;;;;;5013440;28;20022;-84
2023/12/10 09:44:12;;;;;;;81.45;39.10;;;;;;;;;;5027047;28;20467;-86
2023/12/10 09:46:38;;;;;;;127.72;52.08;;;;;;;;;;5023897;28;20366;-86
2023/12/10 09:49:03;;;;;;;168.18;84.68;;;;;;;;;;5023383;28;20036;-86
2023/12/10 09:51:30;;;;;;;137.05;69.25;;;;;;;;;;5028135;28;20487;-86
2023/12/10 09:53:56;;;;;;;100.43;48.55;;;;;;;;;;5010128;28;20030;-84
2023/12/10 09:56:21;;;;;;;103.03;48.67;;;;;;;;;;5030015;28;20032;-84
2023/12/10 09:58:47;;;;;;;166.77;78.82;;;;;;;;;;5026261;28;20101;-84
2023/12/10 10:01:12;;;;;;;155.25;72.50;;;;;;;;;;5026751;28;20364;-84
2023/12/10 10:03:37;;;;;;;184.77;82.15;;;;;;;;;;5008802;28;20104;-82
2023/12/10 10:06:03;;;;;;;128.75;65.13;;;;;;;;;;5026884;28;20033;-84
2023/12/10 10:08:28;;;;;;;145.98;64.43;;;;;;;;;;5024300;28;20026;-83
2023/12/10 10:10:54;;;;;;;53.65;28.92;;;;;;;;;;5025893;28;20035;-84
2023/12/10 10:13:19;;;;;;;48.30;26.25;;;;;;;;;;5010106;28;20033;-84
2023/12/10 10:15:44;;;;;;;90.57;46.78;;;;;;;;;;5026922;28;20017;-83
2023/12/10 10:18:11;;;;;;;67.50;31.10;;;;;;;;;;5026758;28;20400;-83
2023/12/10 10:20:38;;;;;;;97.03;49.00;;;;;;;;;;5024383;28;20025;-83
2023/12/10 10:23:04;;;;;;;79.53;40.42;;;;;;;;;;5026423;28;20487;-85
2023/12/10 10:25:31;;;;;;;78.72;39.25;;;;;;;;;;5027504;28;20514;-83
2023/12/10 10:27:58;;;;;;;74.18;38.80;;;;;;;;;;5009276;28;20119;-84
2023/12/10 10:30:23;;;;;;;113.50;58.55;;;;;;;;;;5009351;28;20572;-83
2023/12/10 10:32:48;;;;;;;98.78;47.97;;;;;;;;;;5027411;28;20033;-83
2023/12/10 10:35:14;;;;;;;80.43;41.78;;;;;;;;;;5008316;28;20230;-84
2023/12/10 10:37:41;;;;;;;91.47;47.20;;;;;;;;;;5015590;28;20026;-84
2023/12/10 10:40:07;;;;;;;78.63;41.63;;;;;;;;;;5027546;28;20026;-82
2023/12/10 10:42:32;;;;;;;54.35;31.13;;;;;;;;;;5027511;28;20498;-83
2023/12/10 10:44:58;;;;;;;61.75;34.15;;;;;;;;;;5008994;28;20026;-83
2023/12/10 10:47:25;;;;;;;89.10;43.22;;;;;;;;;;5013410;28;20033;-83
2023/12/10 10:49:54;;;;;;;61.05;32.72;;;;;;;;;;5027047;28;20680;-83
2023/12/10 10:52:21;;;;;;;272.73;136.25;;;;;;;;;;5020519;28;20491;-83
2023/12/10 10:54:47;;;;;;;45.63;26.55;;;;;;;;;;5009288;28;20479;-83
2023/12/10 10:57:26;;;;;;;36.08;21.17;;;;;;;;;;5026609;28;20025;-83
2023/12/10 10:59:51;;;;;;;39.67;25.23;;;;;;;;;;5026582;28;20048;-83
2023/12/10 11:02:18;;;;;;;35.85;22.05;;;;;;;;;;5011054;28;20479;-83
2023/12/10 11:04:45;;;;;;;31.45;20.38;;;;;;;;;;5025733;28;20482;-83
2023/12/10 11:07:10;;;;;;;27.58;18.20;;;;;;;;;;5026822;28;20100;-83
2023/12/10 11:09:53;;;;;;;30.90;18.83;;;;;;;;;;5008941;28;20120;-83
2023/12/10 11:12:42;;;;;;;28.33;18.75;;;;;;;;;;5010584;28;20032;-83
2023/12/10 11:15:10;;;;;;;26.95;19.75;;;;;;;;;;5018291;28;20399;-85
2023/12/10 11:17:49;;;;;;;24.23;17.10;;;;;;;;;;5024914;28;20044;-85
2023/12/10 11:20:14;;;;;;;;;;;;;;;;;;5030671;28;20022;-83
2023/12/10 11:22:39;;;;;;;18.33;14.20;;;;;;;;;;5029500;28;20386;-83
2023/12/10 11:25:05;;;;;;;19.85;14.82;;;;;;;;;;5030246;28;20025;-82
2023/12/10 11:27:30;;;;;;;15.02;12.02;;;;;;;;;;5020776;28;20456;-83
2023/12/10 11:29:55;;;;;;;17.17;13.80;;;;;;;;;;5022952;28;20024;-83
2023/12/10 11:32:21;;;;;;;17.20;13.52;;;;;;;;;;5025350;28;20486;-83
2023/12/10 11:34:46;;;;;;;18.95;13.77;;;;;;;;;;5025602;28;20029;-83
2023/12/10 11:37:11;;;;;;;21.17;15.95;;;;;;;;;;5009501;28;20116;-82
2023/12/10 11:39:37;;;;;;;18.15;14.00;;;;;;;;;;5026615;28;20017;-84
2023/12/10 11:42:02;;;;;;;22.48;13.48;;;;;;;;;;5012162;28;20020;-84
2023/12/10 11:44:27;;;;;;;19.33;13.77;;;;;;;;;;5014439;28;20019;-84
2023/12/10 11:46:53;;;;;;;18.98;14.32;;;;;;;;;;5026806;28;20104;-84
2023/12/10 11:49:18;;;;;;;18.08;14.05;;;;;;;;;;5008148;28;20406;-84
2023/12/10 11:51:44;;;;;;;21.23;15.07;;;;;;;;;;5027023;28;20033;-84
2023/12/10 11:54:09;;;;;;;21.40;15.13;;;;;;;;;;5027924;28;20033;-84
2023/12/10 11:56:35;;;;;;;19.85;15.13;;;;;;;;;;5025419;28;20469;-85
2023/12/10 11:59:01;;;;;;;19.52;15.13;;;;;;;;;;5009004;28;20127;-85
2023/12/10 12:01:26;;;;;;;29.27;19.10;;;;;;;;;;5008510;28;20090;-85
2023/12/10 12:03:53;;;;;;;22.40;15.15;;;;;;;;;;5014109;28;20071;-85
2023/12/10 12:06:19;;;;;;;22.80;15.13;;;;;;;;;;5008865;28;20037;-85
2023/12/10 12:08:44;;;;;;;25.83;18.13;;;;;;;;;;5008423;28;20107;-84
2023/12/10 12:11:10;;;;;;;34.35;19.90;;;;;;;;;;5025153;28;20462;-84
2023/12/10 12:13:35;;;;;;;34.30;21.58;;;;;;;;;;5025659;28;20029;-84
2023/12/10 12:16:01;;;;;;;40.25;22.60;;;;;;;;;;5007320;28;20048;-84
2023/12/10 12:18:27;;;;;;;34.70;21.88;;;;;;;;;;5020700;28;20459;-84
2023/12/10 12:20:53;;;;;;;43.90;25.65;;;;;;;;;;5025235;28;20041;-84
2023/12/10 12:23:18;;;;;;;48.38;28.42;;;;;;;;;;5010150;28;20482;-84
2023/12/10 12:25:44;;;;;;;42.50;26.45;;;;;;;;;;5010981;28;20449;-84
2023/12/10 12:28:09;;;;;;;36.40;23.25;;;;;;;;;;5015519;28;20041;-84
2023/12/10 12:30:36;;;;;;;45.20;26.73;;;;;;;;;;5025802;28;20044;-84
2023/12/10 12:33:01;;;;;;;43.55;26.20;;;;;;;;;;5021235;28;20029;-82
2023/12/10 12:35:27;;;;;;;41.03;24.80;;;;;;;;;;5007672;28;20036;-83
2023/12/10 12:37:52;;;;;;;41.97;26.92;;;;;;;;;;5007500;28;20030;-83
2023/12/10 12:40:20;;;;;;;35.33;21.98;;;;;;;;;;5007784;28;20105;-83
2023/12/10 12:42:48;;;;;;;23.73;15.52;;;;;;;;;;5016304;28;20463;-83
2023/12/10 12:45:14;;;;;;;33.42;22.42;;;;;;;;;;5026017;28;20025;-82
2023/12/10 12:47:39;;;;;;;32.67;22.25;;;;;;;;;;5023324;28;20047;-82
2023/12/10 12:50:06;;;;;;;23.60;15.77;;;;;;;;;;5025215;28;20076;-83
2023/12/10 12:52:31;;;;;;;32.83;22.50;;;;;;;;;;5015048;28;20018;-83
2023/12/10 12:54:57;;;;;;;28.40;19.33;;;;;;;;;;5020414;28;20171;-82
2023/12/10 12:57:22;;;;;;;26.58;16.13;;;;;;;;;;5025326;28;20017;-83
2023/12/10 12:59:47;;;;;;;29.55;16.48;;;;;;;;;;5021551;28;20036;-82
2023/12/10 13:02:13;;;;;;;26.45;17.17;;;;;;;;;;5025479;28;20035;-82
2023/12/10 13:04:38;;;;;;;28.75;18.60;;;;;;;;;;5025073;28;20108;-83
2023/12/10 13:07:03;;;;;;;28.45;20.15;;;;;;;;;;5025160;28;20048;-82
2023/12/10 13:09:29;;;;;;;29.38;20.00;;;;;;;;;;5009625;28;20030;-83
2023/12/10 13:11:56;;;;;;;35.92;21.55;;;;;;;;;;5006733;28;20514;-83
2023/12/10 13:14:22;;;;;;;33.25;22.85;;;;;;;;;;5024034;28;20087;-82
2023/12/10 13:16:47;;;;;;;33.33;22.30;;;;;;;;;;5021997;28;20475;-82
2023/12/10 13:19:13;;;;;;;29.27;20.33;;;;;;;;;;5024434;28;20107;-84
2023/12/10 13:21:39;;;;;;;30.58;20.33;;;;;;;;;;5023529;28;20037;-83
2023/12/10 13:24:04;;;;;;;31.23;20.75;;;;;;;;;;5007639;28;20446;-83
2023/12/10 13:26:29;;;;;;;33.33;21.20;;;;;;;;;;5009089;28;20025;-83
2023/12/10 13:28:55;;;;;;;34.95;22.73;;;;;;;;;;5024523;28;20053;-83
2023/12/10 13:31:21;;;;;;;37.45;24.73;;;;;;;;;;5024192;28;20123;-84
2023/12/10 13:33:47;;;;;;;45.45;28.23;;;;;;;;;;5015216;28;20033;-83
2023/12/10 13:36:12;;;;;;;39.90;24.60;;;;;;;;;;5024334;28;20059;-83
2023/12/10 13:38:37;;;;;;;38.78;22.95;;;;;;;;;;5024278;28;20013;-84
2023/12/10 13:41:03;;;;;;;43.22;27.17;;;;;;;;;;5021662;28;20041;-84
2023/12/10 13:43:30;;;;;;;48.97;29.08;;;;;;;;;;5006273;28;20760;-83
2023/12/10 13:45:55;;;;;;;44.65;26.35;;;;;;;;;;5020505;28;20566;-84
2023/12/10 13:48:20;;;;;;;41.42;24.95;;;;;;;;;;5024998;28;20116;-84
2023/12/10 13:50:46;;;;;;;40.30;24.45;;;;;;;;;;5006339;28;20060;-83
2023/12/10 13:53:11;;;;;;;45.60;28.45;;;;;;;;;;5023608;28;20151;-84
2023/12/10 13:55:36;;;;;;;44.25;26.73;;;;;;;;;;5021563;28;20033;-83
2023/12/10 13:58:02;;;;;;;51.30;31.98;;;;;;;;;;5024127;28;20040;-83
2023/12/10 14:00:27;;;;;;;47.58;31.88;;;;;;;;;;5007523;28;20022;-83